Terminal Aerodrome Forecast
Issued by NWS Norman, OK

Home | Current Version | Previous Version | Text Only | Print | Product List | Glossary On
Versions: 1 2 3 4 5 6 7 8 9 10 11 12 13 14 15 16 17 18 19 20 21 22 23 24 25 26
000
FTUS44 KOUN 272337
TAFSPS
TAF
KSPS 272337Z 2800/2824 06009KT 6SM -SN SCT015 OVC040
      TEMPO 2800/2802 3SM -SN
     FM281000 07009KT 3SM -SN OVC015
     FM281700 12010KT 5SM -FZDZ OVC008
     FM282200 13008KT 3SM -DZ BR OVC007=

USA.gov is the U.S. government's official web portal to all federal, state and local government web resources and services.